Fahri Eksioglu — TCUH — position and weather

sailwx.info

Track history (hours):
 
Tides and Currents Weather Stations Pressure Air Temp Water Temp Dewpoint Dewpoint Depression Visibility Wind Speed Wind Dir Waves Ship Positions

Fahri Eksioglu

Last reported at 2014-Sep-01 01:24 UTC. Time now 2014-Sep-01 21:04 UTC.
Position N 40°55' E 028°50'.

Length 89 m; draft 5.6 m.

Type: Cargo ship. MMSI: 271000450.

Date/timePositionNaut miles runAvg speedWind from/ knotsBaromVisibWave heightAir tempDewpointWater temp
2014-Sep-01 01:24N 40°55' E 028°50'8 9.7
2014-Sep-01 00:33N 40°59' E 028°59'429 8.6
2014-Aug-29 22:32N 44°27' E 037°30'10 9.9
2014-Aug-29 21:33N 44°33' E 037°41'9 9.1
2014-Aug-29 20:34N 44°40' E 037°50'5 4.5
2014-Aug-29 19:32N 44°44' E 037°48'0 0.0
2014-Aug-29 18:33N 44°44' E 037°48'0 0.0
2014-Aug-29 17:32N 44°44' E 037°48'0 0.0
2014-Aug-29 16:33N 44°44' E 037°48'0 0.0
2014-Aug-29 15:32N 44°44' E 037°48'0 0.0
2014-Aug-29 14:32N 44°44' E 037°48'0 0.0
2014-Aug-29 13:32N 44°44' E 037°48'0 0.0
2014-Aug-29 12:33N 44°44' E 037°48'0 0.0
2014-Aug-29 11:31N 44°44' E 037°48'0 0.0
2014-Aug-29 10:29N 44°44' E 037°48'0 0.0
2014-Aug-29 09:32N 44°44' E 037°48'0 0.0
2014-Aug-29 08:32N 44°44' E 037°48'0 0.0
2014-Aug-29 07:31N 44°44' E 037°48'0 0.0
2014-Aug-29 06:28N 44°44' E 037°48'0 0.0
2014-Aug-29 05:31N 44°44' E 037°48'0 0.0
2014-Aug-29 04:31N 44°44' E 037°48'0 0.0
2014-Aug-29 03:32N 44°44' E 037°48'0 0.0
2014-Aug-29 02:31N 44°44' E 037°48'0 0.0
2014-Aug-29 01:32N 44°44' E 037°48'0 0.0
2014-Aug-29 00:33N 44°44' E 037°48'0 0.0
2014-Aug-28 23:33N 44°44' E 037°48'0 0.0
2014-Aug-28 22:33N 44°44' E 037°48'0 0.0
2014-Aug-28 21:33N 44°44' E 037°48'0 0.0
2014-Aug-28 20:33N 44°44' E 037°48'0 0.0
2014-Aug-28 19:32N 44°44' E 037°48'0 0.0
2014-Aug-28 18:31N 44°44' E 037°48'0 0.0
2014-Aug-28 17:33N 44°44' E 037°48'0 0.0
2014-Aug-28 16:31N 44°44' E 037°48'0 0.0
2014-Aug-28 15:33N 44°44' E 037°48'0 0.0
2014-Aug-28 14:33N 44°44' E 037°48'1 1.4
2014-Aug-28 13:33N 44°43' E 037°49'5 4.6
2014-Aug-28 12:33N 44°39' E 037°53'1 1.1
2014-Aug-28 11:31N 44°39' E 037°54'0 0.0
2014-Aug-28 10:31N 44°39' E 037°54'0 0.3
2014-Aug-28 09:33N 44°39' E 037°54'6 6.4
2014-Aug-28 08:33N 44°44' E 037°48'1 0.8
2014-Aug-28 07:31N 44°44' E 037°46'0 0.0
2014-Aug-28 06:33N 44°44' E 037°46'0 0.0
2014-Aug-28 05:32N 44°44' E 037°47'0 0.0
2014-Aug-28 04:32N 44°44' E 037°47'0 0.0
2014-Aug-28 03:32N 44°44' E 037°47'0 0.0
2014-Aug-28 02:32N 44°44' E 037°46'0 0.0
2014-Aug-28 01:32N 44°44' E 037°46'0 0.0
2014-Aug-28 00:29N 44°44' E 037°47'0 0.0
2014-Aug-27 23:28N 44°44' E 037°46'0 0.0
2014-Aug-27 22:31N 44°44' E 037°46'0 0.0
2014-Aug-27 21:31N 44°44' E 037°47'0 0.0
2014-Aug-27 20:31N 44°44' E 037°47'0 0.0
2014-Aug-27 19:31N 44°44' E 037°46'0 0.0
2014-Aug-27 18:31N 44°44' E 037°46'0 0.0
2014-Aug-27 17:32N 44°44' E 037°46'0 0.0
2014-Aug-27 16:31N 44°44' E 037°46'0 0.0
2014-Aug-27 15:33N 44°44' E 037°46'0 0.0
2014-Aug-27 14:33N 44°44' E 037°47'0 0.0
2014-Aug-27 13:30N 44°44' E 037°47'0 0.0
2014-Aug-27 12:33N 44°44' E 037°47'0 0.0
2014-Aug-27 11:33N 44°44' E 037°46'0 0.0
2014-Aug-27 10:32N 44°44' E 037°46'4 4.6
2014-Aug-27 09:34N 44°40' E 037°50'3 3.2
2014-Aug-27 08:31N 44°37' E 037°52'9 9.0
2014-Aug-27 07:33N 44°29' E 037°46'10 9.7
2014-Aug-27 06:33N 44°24' E 037°35'20 9.8
2014-Aug-27 04:33N 44°12' E 037°13'1010.2
2014-Aug-27 03:33N 44°06' E 037°02'402 8.9
2014-Aug-25 06:28N 40°57' E 029°00'9 9.2
2014-Aug-25 05:33N 40°53' E 029°09'1 1.1
2014-Aug-25 04:33N 40°52' E 029°11'0 0.0
2014-Aug-25 03:14N 40°52' E 029°11'0 0.1
2014-Aug-25 02:32N 40°52' E 029°10'0 0.0
2014-Aug-25 01:29N 40°52' E 029°10'0 0.0
2014-Aug-24 23:19N 40°52' E 029°10'0 0.0
2014-Aug-24 22:30N 40°52' E 029°10'0 0.0
2014-Aug-24 21:33N 40°52' E 029°10'0 0.0
2014-Aug-24 20:33N 40°52' E 029°10'0 0.1
2014-Aug-24 19:33N 40°52' E 029°11'5 5.2
2014-Aug-24 18:32N 40°48' E 029°06'1010.2
2014-Aug-24 17:33N 40°43' E 028°54'10 9.5
2014-Aug-24 16:33N 40°35' E 028°47'32 0.9
2014-Aug-23 03:32N 40°45' E 029°28'  
Track history (hours):
 
Tides and Currents Weather Stations Pressure Air Temp Water Temp Dewpoint Dewpoint Depression Visibility Wind Speed Wind Dir Waves Ship Positions

Fahri Eksioglu

Last reported at 2014-Sep-01 01:24 UTC. Time now 2014-Sep-01 21:04 UTC.
Position N 40°55' E 028°50'.

Length 89 m; draft 5.6 m.

Type: Cargo ship. MMSI: 271000450.

Date/timePositionNaut miles runAvg speedWind from/ knotsBaromVisibWave heightAir tempDewpointWater temp
2014-Sep-01 01:24N 40°55' E 028°50'8 9.7
2014-Sep-01 00:33N 40°59' E 028°59'429 8.6
2014-Aug-29 22:32N 44°27' E 037°30'10 9.9
2014-Aug-29 21:33N 44°33' E 037°41'9 9.1
2014-Aug-29 20:34N 44°40' E 037°50'5 4.5
2014-Aug-29 19:32N 44°44' E 037°48'0 0.0
2014-Aug-29 18:33N 44°44' E 037°48'0 0.0
2014-Aug-29 17:32N 44°44' E 037°48'0 0.0
2014-Aug-29 16:33N 44°44' E 037°48'0 0.0
2014-Aug-29 15:32N 44°44' E 037°48'0 0.0
2014-Aug-29 14:32N 44°44' E 037°48'0 0.0
2014-Aug-29 13:32N 44°44' E 037°48'0 0.0
2014-Aug-29 12:33N 44°44' E 037°48'0 0.0
2014-Aug-29 11:31N 44°44' E 037°48'0 0.0
2014-Aug-29 10:29N 44°44' E 037°48'0 0.0
2014-Aug-29 09:32N 44°44' E 037°48'0 0.0
2014-Aug-29 08:32N 44°44' E 037°48'0 0.0
2014-Aug-29 07:31N 44°44' E 037°48'0 0.0
2014-Aug-29 06:28N 44°44' E 037°48'0 0.0
2014-Aug-29 05:31N 44°44' E 037°48'0 0.0
2014-Aug-29 04:31N 44°44' E 037°48'0 0.0
2014-Aug-29 03:32N 44°44' E 037°48'0 0.0
2014-Aug-29 02:31N 44°44' E 037°48'0 0.0
2014-Aug-29 01:32N 44°44' E 037°48'0 0.0
2014-Aug-29 00:33N 44°44' E 037°48'0 0.0
2014-Aug-28 23:33N 44°44' E 037°48'0 0.0
2014-Aug-28 22:33N 44°44' E 037°48'0 0.0
2014-Aug-28 21:33N 44°44' E 037°48'0 0.0
2014-Aug-28 20:33N 44°44' E 037°48'0 0.0
2014-Aug-28 19:32N 44°44' E 037°48'0 0.0
2014-Aug-28 18:31N 44°44' E 037°48'0 0.0
2014-Aug-28 17:33N 44°44' E 037°48'0 0.0
2014-Aug-28 16:31N 44°44' E 037°48'0 0.0
2014-Aug-28 15:33N 44°44' E 037°48'0 0.0
2014-Aug-28 14:33N 44°44' E 037°48'1 1.4
2014-Aug-28 13:33N 44°43' E 037°49'5 4.6
2014-Aug-28 12:33N 44°39' E 037°53'1 1.1
2014-Aug-28 11:31N 44°39' E 037°54'0 0.0
2014-Aug-28 10:31N 44°39' E 037°54'0 0.3
2014-Aug-28 09:33N 44°39' E 037°54'6 6.4
2014-Aug-28 08:33N 44°44' E 037°48'1 0.8
2014-Aug-28 07:31N 44°44' E 037°46'0 0.0
2014-Aug-28 06:33N 44°44' E 037°46'0 0.0
2014-Aug-28 05:32N 44°44' E 037°47'0 0.0
2014-Aug-28 04:32N 44°44' E 037°47'0 0.0
2014-Aug-28 03:32N 44°44' E 037°47'0 0.0
2014-Aug-28 02:32N 44°44' E 037°46'0 0.0
2014-Aug-28 01:32N 44°44' E 037°46'0 0.0
2014-Aug-28 00:29N 44°44' E 037°47'0 0.0
2014-Aug-27 23:28N 44°44' E 037°46'0 0.0
2014-Aug-27 22:31N 44°44' E 037°46'0 0.0
2014-Aug-27 21:31N 44°44' E 037°47'0 0.0
2014-Aug-27 20:31N 44°44' E 037°47'0 0.0
2014-Aug-27 19:31N 44°44' E 037°46'0 0.0
2014-Aug-27 18:31N 44°44' E 037°46'0 0.0
2014-Aug-27 17:32N 44°44' E 037°46'0 0.0
2014-Aug-27 16:31N 44°44' E 037°46'0 0.0
2014-Aug-27 15:33N 44°44' E 037°46'0 0.0
2014-Aug-27 14:33N 44°44' E 037°47'0 0.0
2014-Aug-27 13:30N 44°44' E 037°47'0 0.0
2014-Aug-27 12:33N 44°44' E 037°47'0 0.0
2014-Aug-27 11:33N 44°44' E 037°46'0 0.0
2014-Aug-27 10:32N 44°44' E 037°46'4 4.6
2014-Aug-27 09:34N 44°40' E 037°50'3 3.2
2014-Aug-27 08:31N 44°37' E 037°52'9 9.0
2014-Aug-27 07:33N 44°29' E 037°46'10 9.7
2014-Aug-27 06:33N 44°24' E 037°35'20 9.8
2014-Aug-27 04:33N 44°12' E 037°13'1010.2
2014-Aug-27 03:33N 44°06' E 037°02'402 8.9
2014-Aug-25 06:28N 40°57' E 029°00'9 9.2
2014-Aug-25 05:33N 40°53' E 029°09'1 1.1
2014-Aug-25 04:33N 40°52' E 029°11'0 0.0
2014-Aug-25 03:14N 40°52' E 029°11'0 0.1
2014-Aug-25 02:32N 40°52' E 029°10'0 0.0
2014-Aug-25 01:29N 40°52' E 029°10'0 0.0
2014-Aug-24 23:19N 40°52' E 029°10'0 0.0
2014-Aug-24 22:30N 40°52' E 029°10'0 0.0
2014-Aug-24 21:33N 40°52' E 029°10'0 0.0
2014-Aug-24 20:33N 40°52' E 029°10'0 0.1
2014-Aug-24 19:33N 40°52' E 029°11'5 5.2
2014-Aug-24 18:32N 40°48' E 029°06'1010.2
2014-Aug-24 17:33N 40°43' E 028°54'10 9.5
2014-Aug-24 16:33N 40°35' E 028°47'32 0.9
2014-Aug-23 03:32N 40°45' E 029°28'  

Dump ship's entire track history